sensor_id;sensor_type;location;lat;lon;timestamp;P1;durP1;ratioP1;P2;durP2;ratioP2
22064;SDS011;11197;53.110;8.468;2022-11-04T00:01:57;5.40;;;3.30;;
22064;SDS011;11197;53.110;8.468;2022-11-04T00:04:25;5.03;;;3.42;;
22064;SDS011;11197;53.110;8.468;2022-11-04T00:06:52;4.65;;;2.90;;
22064;SDS011;11197;53.110;8.468;2022-11-04T00:09:21;6.28;;;3.30;;
22064;SDS011;11197;53.110;8.468;2022-11-04T00:11:49;6.43;;;3.50;;
22064;SDS011;11197;53.110;8.468;2022-11-04T00:14:33;6.60;;;3.20;;
22064;SDS011;11197;53.110;8.468;2022-11-04T00:17:00;6.78;;;3.60;;
22064;SDS011;11197;53.110;8.468;2022-11-04T00:19:49;6.22;;;3.65;;
22064;SDS011;11197;53.110;8.468;2022-11-04T00:22:38;5.70;;;3.83;;
22064;SDS011;11197;53.110;8.468;2022-11-04T00:25:24;6.80;;;3.58;;
22064;SDS011;11197;53.110;8.468;2022-11-04T00:28:16;6.90;;;3.92;;
22064;SDS011;11197;53.110;8.468;2022-11-04T00:31:02;7.13;;;3.88;;
22064;SDS011;11197;53.110;8.468;2022-11-04T00:33:49;6.68;;;4.05;;
22064;SDS011;11197;53.110;8.468;2022-11-04T00:36:15;5.55;;;3.70;;
22064;SDS011;11197;53.110;8.468;2022-11-04T00:38:42;7.97;;;3.95;;
22064;SDS011;11197;53.110;8.468;2022-11-04T00:41:08;6.25;;;3.75;;
22064;SDS011;11197;53.110;8.468;2022-11-04T00:44:01;5.45;;;3.63;;
22064;SDS011;11197;53.110;8.468;2022-11-04T00:46:29;6.40;;;3.80;;
22064;SDS011;11197;53.110;8.468;2022-11-04T00:48:56;6.43;;;3.90;;
22064;SDS011;11197;53.110;8.468;2022-11-04T00:51:22;7.40;;;4.43;;
22064;SDS011;11197;53.110;8.468;2022-11-04T00:53:48;7.63;;;4.22;;
22064;SDS011;11197;53.110;8.468;2022-11-04T00:56:15;7.30;;;4.13;;
22064;SDS011;11197;53.110;8.468;2022-11-04T00:58:41;7.35;;;4.47;;
22064;SDS011;11197;53.110;8.468;2022-11-04T01:01:07;8.95;;;4.57;;
22064;SDS011;11197;53.110;8.468;2022-11-04T01:03:37;8.27;;;4.82;;
22064;SDS011;11197;53.110;8.468;2022-11-04T01:06:03;6.40;;;4.55;;
22064;SDS011;11197;53.110;8.468;2022-11-04T01:08:29;8.65;;;4.90;;
22064;SDS011;11197;53.110;8.468;2022-11-04T01:10:55;7.13;;;4.97;;
22064;SDS011;11197;53.110;8.468;2022-11-04T01:13:24;8.38;;;5.05;;
22064;SDS011;11197;53.110;8.468;2022-11-04T01:15:50;6.10;;;4.60;;
22064;SDS011;11197;53.110;8.468;2022-11-04T01:18:16;9.50;;;5.40;;
22064;SDS011;11197;53.110;8.468;2022-11-04T01:20:42;7.85;;;5.10;;
22064;SDS011;11197;53.110;8.468;2022-11-04T01:23:08;10.43;;;5.38;;
22064;SDS011;11197;53.110;8.468;2022-11-04T01:25:33;6.32;;;5.05;;
22064;SDS011;11197;53.110;8.468;2022-11-04T01:28:03;7.72;;;5.53;;
22064;SDS011;11197;53.110;8.468;2022-11-04T01:30:29;8.85;;;5.63;;
22064;SDS011;11197;53.110;8.468;2022-11-04T01:32:55;8.15;;;5.35;;
22064;SDS011;11197;53.110;8.468;2022-11-04T01:35:20;9.60;;;5.90;;
22064;SDS011;11197;53.110;8.468;2022-11-04T01:37:47;7.93;;;5.75;;
22064;SDS011;11197;53.110;8.468;2022-11-04T01:40:13;9.07;;;6.30;;
22064;SDS011;11197;53.110;8.468;2022-11-04T01:42:38;7.90;;;5.93;;
22064;SDS011;11197;53.110;8.468;2022-11-04T01:45:07;8.18;;;6.00;;
22064;SDS011;11197;53.110;8.468;2022-11-04T01:47:39;7.97;;;6.38;;
22064;SDS011;11197;53.110;8.468;2022-11-04T01:50:13;7.00;;;5.70;;
22064;SDS011;11197;53.110;8.468;2022-11-04T01:52:53;8.85;;;6.25;;
22064;SDS011;11197;53.110;8.468;2022-11-04T01:55:25;10.68;;;6.70;;
22064;SDS011;11197;53.110;8.468;2022-11-04T01:57:57;8.85;;;7.18;;
22064;SDS011;11197;53.110;8.468;2022-11-04T02:00:28;10.68;;;7.07;;
22064;SDS011;11197;53.110;8.468;2022-11-04T02:03:03;10.02;;;7.30;;
22064;SDS011;11197;53.110;8.468;2022-11-04T02:05:32;10.13;;;7.22;;
22064;SDS011;11197;53.110;8.468;2022-11-04T02:07:59;9.30;;;6.68;;
22064;SDS011;11197;53.110;8.468;2022-11-04T02:10:28;9.18;;;6.35;;
22064;SDS011;11197;53.110;8.468;2022-11-04T02:12:57;7.60;;;5.93;;
22064;SDS011;11197;53.110;8.468;2022-11-04T02:29:32;6.80;;;5.25;;
22064;SDS011;11197;53.110;8.468;2022-11-04T02:37:46;4.43;;;3.60;;
22064;SDS011;11197;53.110;8.468;2022-11-04T02:45:37;4.00;;;2.58;;
22064;SDS011;11197;53.110;8.468;2022-11-04T02:50:53;3.40;;;1.90;;
22064;SDS011;11197;53.110;8.468;2022-11-04T02:53:28;3.80;;;1.98;;
22064;SDS011;11197;53.110;8.468;2022-11-04T02:56:21;3.70;;;1.67;;
22064;SDS011;11197;53.110;8.468;2022-11-04T02:58:52;2.00;;;1.25;;
22064;SDS011;11197;53.110;8.468;2022-11-04T03:01:21;2.72;;;1.30;;
22064;SDS011;11197;53.110;8.468;2022-11-04T03:03:51;3.13;;;1.30;;
22064;SDS011;11197;53.110;8.468;2022-11-04T03:06:23;2.13;;;1.20;;
22064;SDS011;11197;53.110;8.468;2022-11-04T03:08:51;1.50;;;1.10;;
22064;SDS011;11197;53.110;8.468;2022-11-04T03:11:20;2.42;;;1.17;;
22064;SDS011;11197;53.110;8.468;2022-11-04T03:13:53;2.05;;;1.30;;
22064;SDS011;11197;53.110;8.468;2022-11-04T03:16:37;2.53;;;1.50;;
22064;SDS011;11197;53.110;8.468;2022-11-04T03:19:12;2.50;;;1.48;;
22064;SDS011;11197;53.110;8.468;2022-11-04T03:21:52;3.40;;;1.50;;
22064;SDS011;11197;53.110;8.468;2022-11-04T03:24:28;3.03;;;1.60;;
22064;SDS011;11197;53.110;8.468;2022-11-04T03:27:00;2.33;;;1.77;;
22064;SDS011;11197;53.110;8.468;2022-11-04T03:29:38;2.60;;;1.67;;
22064;SDS011;11197;53.110;8.468;2022-11-04T03:34:52;3.10;;;2.33;;
22064;SDS011;11197;53.110;8.468;2022-11-04T03:37:18;2.67;;;2.10;;
22064;SDS011;11197;53.110;8.468;2022-11-04T03:39:44;4.18;;;2.28;;
22064;SDS011;11197;53.110;8.468;2022-11-04T03:42:11;4.60;;;2.10;;
22064;SDS011;11197;53.110;8.468;2022-11-04T03:47:18;3.40;;;2.22;;
22064;SDS011;11197;53.110;8.468;2022-11-04T03:49:46;3.17;;;2.13;;
22064;SDS011;11197;53.110;8.468;2022-11-04T03:52:13;3.92;;;2.50;;
22064;SDS011;11197;53.110;8.468;2022-11-04T03:54:41;3.42;;;2.53;;
22064;SDS011;11197;53.110;8.468;2022-11-04T04:05:32;4.30;;;3.17;;
22064;SDS011;11197;53.110;8.468;2022-11-04T04:08:14;4.57;;;3.58;;
22064;SDS011;11197;53.110;8.468;2022-11-04T04:13:48;6.07;;;3.88;;
22064;SDS011;11197;53.110;8.468;2022-11-04T04:17:04;4.38;;;3.60;;
22064;SDS011;11197;53.110;8.468;2022-11-04T04:21:47;5.43;;;4.20;;
22064;SDS011;11197;53.110;8.468;2022-11-04T04:24:32;5.30;;;4.13;;
22064;SDS011;11197;53.110;8.468;2022-11-04T04:27:19;5.75;;;4.30;;
22064;SDS011;11197;53.110;8.468;2022-11-04T04:29:55;5.65;;;4.05;;
22064;SDS011;11197;53.110;8.468;2022-11-04T04:32:37;5.18;;;4.45;;
22064;SDS011;11197;53.110;8.468;2022-11-04T04:35:07;5.43;;;4.30;;
22064;SDS011;11197;53.110;8.468;2022-11-04T04:37:53;6.75;;;4.70;;
22064;SDS011;11197;53.110;8.468;2022-11-04T04:40:43;6.95;;;5.10;;
22064;SDS011;11197;53.110;8.468;2022-11-04T04:43:37;6.57;;;4.85;;
22064;SDS011;11197;53.110;8.468;2022-11-04T04:46:25;7.07;;;5.28;;
22064;SDS011;11197;53.110;8.468;2022-11-04T04:48:54;7.47;;;5.63;;
22064;SDS011;11197;53.110;8.468;2022-11-04T04:51:20;7.68;;;5.47;;
22064;SDS011;11197;53.110;8.468;2022-11-04T04:53:46;6.72;;;5.05;;
22064;SDS011;11197;53.110;8.468;2022-11-04T04:56:12;6.75;;;5.07;;
22064;SDS011;11197;53.110;8.468;2022-11-04T04:58:38;9.07;;;6.05;;
22064;SDS011;11197;53.110;8.468;2022-11-04T05:01:04;6.47;;;5.38;;
22064;SDS011;11197;53.110;8.468;2022-11-04T05:03:30;6.32;;;5.72;;
22064;SDS011;11197;53.110;8.468;2022-11-04T05:05:58;6.63;;;5.80;;
22064;SDS011;11197;53.110;8.468;2022-11-04T05:08:24;9.13;;;6.32;;
22064;SDS011;11197;53.110;8.468;2022-11-04T05:10:49;6.40;;;5.25;;
22064;SDS011;11197;53.110;8.468;2022-11-04T05:13:15;6.20;;;5.45;;
22064;SDS011;11197;53.110;8.468;2022-11-04T05:15:50;8.40;;;6.38;;
22064;SDS011;11197;53.110;8.468;2022-11-04T05:18:16;8.98;;;6.00;;
22064;SDS011;11197;53.110;8.468;2022-11-04T05:20:42;6.95;;;6.03;;
22064;SDS011;11197;53.110;8.468;2022-11-04T05:23:08;6.40;;;5.68;;
22064;SDS011;11197;53.110;8.468;2022-11-04T05:25:36;6.97;;;5.90;;
22064;SDS011;11197;53.110;8.468;2022-11-04T05:28:04;7.22;;;5.78;;
22064;SDS011;11197;53.110;8.468;2022-11-04T05:30:30;6.25;;;5.28;;
22064;SDS011;11197;53.110;8.468;2022-11-04T05:32:56;5.70;;;4.60;;
22064;SDS011;11197;53.110;8.468;2022-11-04T05:35:22;6.15;;;4.78;;
22064;SDS011;11197;53.110;8.468;2022-11-04T05:37:48;5.65;;;4.50;;
22064;SDS011;11197;53.110;8.468;2022-11-04T05:40:14;5.03;;;4.15;;
22064;SDS011;11197;53.110;8.468;2022-11-04T05:42:40;4.85;;;3.92;;
22064;SDS011;11197;53.110;8.468;2022-11-04T05:45:06;4.55;;;3.70;;
22064;SDS011;11197;53.110;8.468;2022-11-04T05:47:32;4.93;;;3.45;;
22064;SDS011;11197;53.110;8.468;2022-11-04T05:49:58;3.80;;;3.10;;
22064;SDS011;11197;53.110;8.468;2022-11-04T05:52:24;3.72;;;2.95;;
22064;SDS011;11197;53.110;8.468;2022-11-04T05:54:50;4.00;;;3.05;;
22064;SDS011;11197;53.110;8.468;2022-11-04T05:57:16;3.80;;;2.92;;
22064;SDS011;11197;53.110;8.468;2022-11-04T05:59:42;3.85;;;2.80;;
22064;SDS011;11197;53.110;8.468;2022-11-04T06:02:07;4.50;;;3.08;;
22064;SDS011;11197;53.110;8.468;2022-11-04T06:04:34;4.10;;;2.80;;
22064;SDS011;11197;53.110;8.468;2022-11-04T06:07:00;3.78;;;2.88;;
22064;SDS011;11197;53.110;8.468;2022-11-04T06:09:26;5.90;;;3.65;;
22064;SDS011;11197;53.110;8.468;2022-11-04T06:12:08;9.57;;;4.30;;
22064;SDS011;11197;53.110;8.468;2022-11-04T06:14:35;7.72;;;3.92;;
22064;SDS011;11197;53.110;8.468;2022-11-04T06:17:02;9.57;;;4.07;;
22064;SDS011;11197;53.110;8.468;2022-11-04T06:19:28;6.97;;;4.40;;
22064;SDS011;11197;53.110;8.468;2022-11-04T06:21:55;4.88;;;3.83;;
22064;SDS011;11197;53.110;8.468;2022-11-04T06:24:22;5.78;;;4.00;;
22064;SDS011;11197;53.110;8.468;2022-11-04T06:26:48;5.25;;;3.75;;
22064;SDS011;11197;53.110;8.468;2022-11-04T06:29:14;4.65;;;3.55;;
22064;SDS011;11197;53.110;8.468;2022-11-04T06:31:40;5.75;;;3.45;;
22064;SDS011;11197;53.110;8.468;2022-11-04T06:34:06;4.43;;;3.05;;
22064;SDS011;11197;53.110;8.468;2022-11-04T06:36:32;5.10;;;3.25;;
22064;SDS011;11197;53.110;8.468;2022-11-04T06:38:57;3.33;;;2.50;;
22064;SDS011;11197;53.110;8.468;2022-11-04T06:41:24;4.55;;;2.38;;
22064;SDS011;11197;53.110;8.468;2022-11-04T06:43:49;3.63;;;2.45;;
22064;SDS011;11197;53.110;8.468;2022-11-04T06:49:02;2.47;;;1.67;;
22064;SDS011;11197;53.110;8.468;2022-11-04T06:51:33;3.47;;;1.80;;
22064;SDS011;11197;53.110;8.468;2022-11-04T06:54:00;2.28;;;1.60;;
22064;SDS011;11197;53.110;8.468;2022-11-04T06:56:26;1.90;;;1.45;;
22064;SDS011;11197;53.110;8.468;2022-11-04T06:58:53;3.58;;;1.45;;
22064;SDS011;11197;53.110;8.468;2022-11-04T07:01:20;3.08;;;1.40;;
22064;SDS011;11197;53.110;8.468;2022-11-04T07:03:52;5.63;;;1.50;;
22064;SDS011;11197;53.110;8.468;2022-11-04T07:06:19;2.33;;;1.60;;
22064;SDS011;11197;53.110;8.468;2022-11-04T07:08:46;2.58;;;1.45;;
22064;SDS011;11197;53.110;8.468;2022-11-04T07:11:13;2.47;;;1.50;;
22064;SDS011;11197;53.110;8.468;2022-11-04T07:13:41;2.95;;;1.67;;
22064;SDS011;11197;53.110;8.468;2022-11-04T07:16:07;2.30;;;1.30;;
22064;SDS011;11197;53.110;8.468;2022-11-04T07:18:33;3.05;;;1.45;;
22064;SDS011;11197;53.110;8.468;2022-11-04T07:20:59;2.60;;;1.70;;
22064;SDS011;11197;53.110;8.468;2022-11-04T07:23:25;3.08;;;1.40;;
22064;SDS011;11197;53.110;8.468;2022-11-04T07:25:52;4.45;;;1.50;;
22064;SDS011;11197;53.110;8.468;2022-11-04T07:28:20;2.05;;;1.58;;
22064;SDS011;11197;53.110;8.468;2022-11-04T07:30:46;2.67;;;1.73;;
22064;SDS011;11197;53.110;8.468;2022-11-04T07:33:12;3.45;;;1.50;;
22064;SDS011;11197;53.110;8.468;2022-11-04T07:35:38;3.70;;;1.48;;
22064;SDS011;11197;53.110;8.468;2022-11-04T07:38:04;2.30;;;1.40;;
22064;SDS011;11197;53.110;8.468;2022-11-04T07:40:30;2.95;;;1.50;;
22064;SDS011;11197;53.110;8.468;2022-11-04T07:42:59;2.38;;;1.60;;
22064;SDS011;11197;53.110;8.468;2022-11-04T07:45:34;2.65;;;1.30;;
22064;SDS011;11197;53.110;8.468;2022-11-04T07:48:00;3.72;;;1.30;;
22064;SDS011;11197;53.110;8.468;2022-11-04T07:50:26;1.88;;;1.27;;
22064;SDS011;11197;53.110;8.468;2022-11-04T07:52:52;4.85;;;1.30;;
22064;SDS011;11197;53.110;8.468;2022-11-04T07:55:18;2.00;;;0.88;;
22064;SDS011;11197;53.110;8.468;2022-11-04T07:57:44;3.85;;;1.10;;
22064;SDS011;11197;53.110;8.468;2022-11-04T08:00:11;4.15;;;1.00;;
22064;SDS011;11197;53.110;8.468;2022-11-04T08:02:40;2.45;;;0.80;;
22064;SDS011;11197;53.110;8.468;2022-11-04T08:05:11;1.00;;;0.70;;
22064;SDS011;11197;53.110;8.468;2022-11-04T08:07:37;1.05;;;0.70;;
22064;SDS011;11197;53.110;8.468;2022-11-04T08:10:03;2.03;;;0.70;;
22064;SDS011;11197;53.110;8.468;2022-11-04T08:12:30;1.52;;;0.70;;
22064;SDS011;11197;53.110;8.468;2022-11-04T08:14:56;1.67;;;0.65;;
22064;SDS011;11197;53.110;8.468;2022-11-04T08:17:25;1.98;;;0.70;;
22064;SDS011;11197;53.110;8.468;2022-11-04T08:19:51;1.48;;;0.80;;
22064;SDS011;11197;53.110;8.468;2022-11-04T08:22:17;2.40;;;0.70;;
22064;SDS011;11197;53.110;8.468;2022-11-04T08:24:43;2.63;;;0.90;;
22064;SDS011;11197;53.110;8.468;2022-11-04T08:27:12;2.90;;;0.80;;
22064;SDS011;11197;53.110;8.468;2022-11-04T08:29:38;2.83;;;1.02;;
22064;SDS011;11197;53.110;8.468;2022-11-04T08:32:05;3.50;;;1.10;;
22064;SDS011;11197;53.110;8.468;2022-11-04T08:34:32;2.10;;;1.20;;
22064;SDS011;11197;53.110;8.468;2022-11-04T08:36:58;3.20;;;1.10;;
22064;SDS011;11197;53.110;8.468;2022-11-04T08:39:24;2.50;;;1.00;;
22064;SDS011;11197;53.110;8.468;2022-11-04T08:41:50;1.83;;;1.00;;
22064;SDS011;11197;53.110;8.468;2022-11-04T08:44:18;2.30;;;1.10;;
22064;SDS011;11197;53.110;8.468;2022-11-04T08:46:45;2.35;;;1.38;;
22064;SDS011;11197;53.110;8.468;2022-11-04T08:49:12;3.42;;;1.30;;
22064;SDS011;11197;53.110;8.468;2022-11-04T08:51:40;7.05;;;1.60;;
22064;SDS011;11197;53.110;8.468;2022-11-04T08:54:08;3.30;;;1.33;;
22064;SDS011;11197;53.110;8.468;2022-11-04T08:56:35;2.22;;;1.48;;
22064;SDS011;11197;53.110;8.468;2022-11-04T08:59:03;4.03;;;1.70;;
22064;SDS011;11197;53.110;8.468;2022-11-04T09:01:31;4.43;;;1.52;;
22064;SDS011;11197;53.110;8.468;2022-11-04T09:03:58;2.55;;;1.50;;
22064;SDS011;11197;53.110;8.468;2022-11-04T09:06:26;2.75;;;1.60;;
22064;SDS011;11197;53.110;8.468;2022-11-04T09:08:54;2.55;;;1.85;;
22064;SDS011;11197;53.110;8.468;2022-11-04T09:11:21;3.58;;;2.00;;
22064;SDS011;11197;53.110;8.468;2022-11-04T09:13:47;2.78;;;1.90;;
22064;SDS011;11197;53.110;8.468;2022-11-04T09:16:13;5.30;;;2.20;;
22064;SDS011;11197;53.110;8.468;2022-11-04T09:18:40;3.90;;;2.00;;
22064;SDS011;11197;53.110;8.468;2022-11-04T09:21:06;5.22;;;1.70;;
22064;SDS011;11197;53.110;8.468;2022-11-04T09:23:33;4.80;;;2.38;;
22064;SDS011;11197;53.110;8.468;2022-11-04T09:26:08;3.53;;;2.00;;
22064;SDS011;11197;53.110;8.468;2022-11-04T09:28:37;5.15;;;2.53;;
22064;SDS011;11197;53.110;8.468;2022-11-04T09:31:08;5.13;;;2.50;;
22064;SDS011;11197;53.110;8.468;2022-11-04T09:33:37;3.38;;;2.22;;
22064;SDS011;11197;53.110;8.468;2022-11-04T09:36:03;5.20;;;2.40;;
22064;SDS011;11197;53.110;8.468;2022-11-04T09:38:29;5.85;;;2.30;;
22064;SDS011;11197;53.110;8.468;2022-11-04T09:40:55;4.13;;;2.35;;
22064;SDS011;11197;53.110;8.468;2022-11-04T09:43:31;3.45;;;2.33;;
22064;SDS011;11197;53.110;8.468;2022-11-04T09:46:03;4.25;;;2.30;;
22064;SDS011;11197;53.110;8.468;2022-11-04T09:48:31;4.72;;;2.03;;
22064;SDS011;11197;53.110;8.468;2022-11-04T09:51:02;5.05;;;2.20;;
22064;SDS011;11197;53.110;8.468;2022-11-04T09:53:35;5.55;;;2.40;;
22064;SDS011;11197;53.110;8.468;2022-11-04T09:58:48;4.15;;;2.13;;
22064;SDS011;11197;53.110;8.468;2022-11-04T10:20:17;4.85;;;2.20;;
22064;SDS011;11197;53.110;8.468;2022-11-04T10:25:48;7.57;;;2.30;;
22064;SDS011;11197;53.110;8.468;2022-11-04T10:28:28;4.03;;;2.33;;
22064;SDS011;11197;53.110;8.468;2022-11-04T10:30:58;4.25;;;2.30;;
22064;SDS011;11197;53.110;8.468;2022-11-04T10:33:30;5.65;;;2.30;;
22064;SDS011;11197;53.110;8.468;2022-11-04T10:36:00;3.63;;;2.10;;
22064;SDS011;11197;53.110;8.468;2022-11-04T10:43:49;5.80;;;2.60;;
22064;SDS011;11197;53.110;8.468;2022-11-04T10:46:19;7.00;;;2.78;;
22064;SDS011;11197;53.110;8.468;2022-11-04T10:48:53;5.38;;;2.45;;
22064;SDS011;11197;53.110;8.468;2022-11-04T10:51:29;5.68;;;3.00;;
22064;SDS011;11197;53.110;8.468;2022-11-04T10:53:56;5.05;;;2.83;;
22064;SDS011;11197;53.110;8.468;2022-11-04T10:56:37;3.85;;;2.70;;
22064;SDS011;11197;53.110;8.468;2022-11-04T11:02:09;4.80;;;3.20;;
22064;SDS011;11197;53.110;8.468;2022-11-04T11:04:37;4.95;;;3.13;;
22064;SDS011;11197;53.110;8.468;2022-11-04T11:07:09;7.78;;;3.40;;
22064;SDS011;11197;53.110;8.468;2022-11-04T11:14:38;5.53;;;2.92;;
22064;SDS011;11197;53.110;8.468;2022-11-04T11:19:59;6.72;;;3.53;;
22064;SDS011;11197;53.110;8.468;2022-11-04T11:22:45;6.38;;;3.58;;
22064;SDS011;11197;53.110;8.468;2022-11-04T11:27:50;6.47;;;3.92;;
22064;SDS011;11197;53.110;8.468;2022-11-04T11:30:29;8.38;;;4.20;;
22064;SDS011;11197;53.110;8.468;2022-11-04T11:36:37;8.70;;;4.10;;
22064;SDS011;11197;53.110;8.468;2022-11-04T11:38:57;6.72;;;3.92;;
22064;SDS011;11197;53.110;8.468;2022-11-04T11:41:25;7.63;;;3.60;;
22064;SDS011;11197;53.110;8.468;2022-11-04T11:43:59;7.55;;;3.28;;
22064;SDS011;11197;53.110;8.468;2022-11-04T11:46:53;6.70;;;2.78;;
22064;SDS011;11197;53.110;8.468;2022-11-04T11:49:23;5.15;;;2.60;;
22064;SDS011;11197;53.110;8.468;2022-11-04T11:51:53;7.45;;;2.78;;
22064;SDS011;11197;53.110;8.468;2022-11-04T11:54:29;4.85;;;2.53;;
22064;SDS011;11197;53.110;8.468;2022-11-04T11:57:01;6.18;;;3.00;;
22064;SDS011;11197;53.110;8.468;2022-11-04T12:05:07;5.85;;;3.53;;
22064;SDS011;11197;53.110;8.468;2022-11-04T12:10:26;7.70;;;3.70;;
22064;SDS011;11197;53.110;8.468;2022-11-04T12:21:16;6.90;;;3.22;;
22064;SDS011;11197;53.110;8.468;2022-11-04T12:23:54;5.30;;;3.17;;
22064;SDS011;11197;53.110;8.468;2022-11-04T12:48:10;4.13;;;2.22;;
22064;SDS011;11197;53.110;8.468;2022-11-04T12:51:03;4.68;;;2.22;;
22064;SDS011;11197;53.110;8.468;2022-11-04T12:56:33;9.18;;;2.63;;
22064;SDS011;11197;53.110;8.468;2022-11-04T13:01:35;6.78;;;2.40;;
22064;SDS011;11197;53.110;8.468;2022-11-04T13:04:14;5.80;;;2.72;;
22064;SDS011;11197;53.110;8.468;2022-11-04T13:11:53;5.25;;;2.60;;
22064;SDS011;11197;53.110;8.468;2022-11-04T13:14:24;7.75;;;2.83;;
22064;SDS011;11197;53.110;8.468;2022-11-04T13:16:54;7.70;;;2.50;;
22064;SDS011;11197;53.110;8.468;2022-11-04T13:22:22;5.53;;;2.13;;
22064;SDS011;11197;53.110;8.468;2022-11-04T13:27:46;8.05;;;2.30;;
22064;SDS011;11197;53.110;8.468;2022-11-04T13:30:18;5.88;;;2.10;;
22064;SDS011;11197;53.110;8.468;2022-11-04T13:35:34;6.55;;;2.30;;
22064;SDS011;11197;53.110;8.468;2022-11-04T13:38:11;6.30;;;2.20;;
22064;SDS011;11197;53.110;8.468;2022-11-04T13:43:33;9.93;;;3.22;;
